createdAt,value
2017-07-31T00:02:22.058Z,1.70
2017-07-31T00:04:49.552Z,1.73
2017-07-31T00:07:17.049Z,1.80
2017-07-31T00:09:50.432Z,1.83
2017-07-31T00:12:17.923Z,1.73
2017-07-31T00:14:45.432Z,1.60
2017-07-31T00:17:12.919Z,1.80
2017-07-31T00:19:40.427Z,1.90
2017-07-31T00:22:07.928Z,1.53
2017-07-31T00:24:35.412Z,1.77
2017-07-31T00:27:10.356Z,1.77
2017-07-31T00:29:37.845Z,2.63
2017-07-31T00:32:05.335Z,1.50
2017-07-31T00:34:40.024Z,1.47
2017-07-31T00:37:07.516Z,2.00
2017-07-31T00:39:35.026Z,1.90
2017-07-31T00:42:02.513Z,1.37
2017-07-31T00:44:30.352Z,1.43
2017-07-31T00:46:57.858Z,1.40
2017-07-31T00:49:25.428Z,1.30
2017-07-31T00:51:53.691Z,1.33
2017-07-31T00:54:21.200Z,1.80
2017-07-31T00:56:48.696Z,1.73
2017-07-31T00:59:16.195Z,2.10
2017-07-31T01:01:50.583Z,2.40
2017-07-31T01:04:21.415Z,1.40
2017-07-31T01:06:48.894Z,1.83
2017-07-31T01:09:22.693Z,1.70
2017-07-31T01:11:50.191Z,2.07
2017-07-31T01:14:17.695Z,1.67
2017-07-31T01:16:45.211Z,1.73
2017-07-31T01:19:20.266Z,1.83
2017-07-31T01:21:47.780Z,2.13
2017-07-31T01:24:21.356Z,1.27
2017-07-31T01:26:50.486Z,1.83
2017-07-31T01:29:17.982Z,1.80
2017-07-31T01:31:52.335Z,1.50
2017-07-31T01:34:19.837Z,1.33
2017-07-31T01:36:50.509Z,1.37
2017-07-31T01:39:21.068Z,2.03
2017-07-31T01:41:50.645Z,1.93
2017-07-31T01:44:21.282Z,2.10
2017-07-31T01:46:51.917Z,2.10
2017-07-31T01:49:19.707Z,1.67
2017-07-31T01:51:51.080Z,1.83
2017-07-31T01:54:21.868Z,1.70
2017-07-31T01:56:50.241Z,1.40
2017-07-31T01:59:17.715Z,2.00
2017-07-31T02:01:45.216Z,1.77
2017-07-31T02:04:20.178Z,1.53
2017-07-31T02:06:47.684Z,1.77
2017-07-31T02:09:22.119Z,1.90
2017-07-31T02:11:49.986Z,1.57
2017-07-31T02:14:20.828Z,1.77
2017-07-31T02:16:48.317Z,1.90
2017-07-31T02:19:21.780Z,1.83
2017-07-31T02:21:49.276Z,1.83
2017-07-31T02:24:16.774Z,1.43
2017-07-31T02:26:45.022Z,2.00
2017-07-31T02:29:20.974Z,1.73
2017-07-31T02:31:48.468Z,1.70
2017-07-31T02:34:15.950Z,1.40
2017-07-31T02:36:43.449Z,2.00
2017-07-31T02:39:10.961Z,1.80
2017-07-31T02:41:41.910Z,1.33
2017-07-31T02:44:10.428Z,1.73
2017-07-31T02:46:41.433Z,2.40
2017-07-31T02:49:10.582Z,1.80
2017-07-31T02:51:38.073Z,1.70
2017-07-31T02:54:11.438Z,1.80
2017-07-31T02:56:40.238Z,2.37
2017-07-31T02:59:07.735Z,1.37
2017-07-31T03:01:35.229Z,3.43
2017-07-31T03:04:03.004Z,2.30
2017-07-31T03:06:40.188Z,2.33
2017-07-31T03:09:07.698Z,2.13
2017-07-31T03:11:35.208Z,2.67
2017-07-31T03:14:02.696Z,1.90
2017-07-31T03:16:30.231Z,2.03
2017-07-31T03:19:01.291Z,1.60
2017-07-31T03:21:29.578Z,1.70
2017-07-31T03:23:57.077Z,2.17
2017-07-31T03:26:30.846Z,2.27
2017-07-31T03:29:01.364Z,2.70
2017-07-31T03:31:29.639Z,1.93
2017-07-31T03:33:57.179Z,1.93
2017-07-31T03:36:30.968Z,1.50
2017-07-31T03:38:58.778Z,2.77
2017-07-31T03:41:27.029Z,1.87
2017-07-31T03:43:54.523Z,2.60
2017-07-31T03:46:22.040Z,2.07
2017-07-31T03:48:50.234Z,1.63
2017-07-31T03:51:18.510Z,2.50
2017-07-31T03:53:46.012Z,1.80
2017-07-31T03:56:13.863Z,2.20
2017-07-31T03:58:51.293Z,2.47
2017-07-31T04:01:19.075Z,3.17
2017-07-31T04:03:46.566Z,1.70
2017-07-31T04:06:20.165Z,2.27
2017-07-31T04:08:50.586Z,2.70
2017-07-31T04:11:22.259Z,2.00
2017-07-31T04:13:50.463Z,2.03
2017-07-31T04:16:22.500Z,1.63
2017-07-31T04:18:50.723Z,2.57
2017-07-31T04:21:18.206Z,2.37
2017-07-31T04:23:52.742Z,1.63
2017-07-31T04:26:21.008Z,2.47
2017-07-31T04:28:49.295Z,2.50
2017-07-31T04:31:22.727Z,2.90
2017-07-31T04:33:50.476Z,2.00
2017-07-31T04:36:21.159Z,1.70
2017-07-31T04:38:48.634Z,1.50
2017-07-31T04:41:16.149Z,2.10
2017-07-31T04:43:43.643Z,1.87
2017-07-31T04:46:11.150Z,2.10
2017-07-31T04:48:42.056Z,2.00
2017-07-31T04:51:20.502Z,1.70
2017-07-31T04:53:48.002Z,2.00
2017-07-31T04:56:15.486Z,1.63
2017-07-31T04:58:49.808Z,2.17
2017-07-31T05:01:21.650Z,2.00
2017-07-31T05:03:49.166Z,2.20
2017-07-31T05:06:16.666Z,1.83
2017-07-31T05:08:45.276Z,2.40
2017-07-31T05:11:20.678Z,1.80
2017-07-31T05:13:51.675Z,2.63
2017-07-31T05:16:21.000Z,2.23
2017-07-31T05:18:51.910Z,1.73
2017-07-31T05:21:19.408Z,2.13
2017-07-31T05:23:52.842Z,2.27
2017-07-31T05:26:31.086Z,2.30
2017-07-31T05:28:58.599Z,2.30
2017-07-31T05:31:32.170Z,2.40
2017-07-31T05:33:59.944Z,2.60
2017-07-31T05:36:30.804Z,1.93
2017-07-31T05:38:58.294Z,1.97
2017-07-31T05:41:31.806Z,2.13
2017-07-31T05:44:00.539Z,2.20
2017-07-31T05:46:28.048Z,2.60
2017-07-31T05:49:01.323Z,2.43
2017-07-31T05:51:29.092Z,2.70
2017-07-31T05:53:56.582Z,2.23
2017-07-31T05:56:30.548Z,2.37
2017-07-31T05:58:58.807Z,2.57
2017-07-31T06:01:32.820Z,2.00
2017-07-31T06:04:00.307Z,1.80
2017-07-31T06:06:27.802Z,2.13
2017-07-31T06:08:55.314Z,2.43
2017-07-31T06:11:30.052Z,2.00
2017-07-31T06:14:00.959Z,1.80
2017-07-31T06:16:28.476Z,2.03
2017-07-31T06:18:56.252Z,2.07
2017-07-31T06:21:30.469Z,2.23
2017-07-31T06:23:58.300Z,1.77
2017-07-31T06:26:25.787Z,1.97
2017-07-31T06:29:00.678Z,2.30
2017-07-31T06:31:28.174Z,1.90
2017-07-31T06:33:55.677Z,1.63
2017-07-31T06:36:30.118Z,2.50
2017-07-31T06:39:00.940Z,2.20
2017-07-31T06:41:29.560Z,2.40
2017-07-31T06:43:57.055Z,2.20
2017-07-31T06:46:30.770Z,2.30
2017-07-31T06:48:58.257Z,2.07
2017-07-31T06:51:31.905Z,1.53
2017-07-31T06:53:59.397Z,1.70
2017-07-31T06:56:33.090Z,2.30
2017-07-31T06:59:10.449Z,2.20
2017-07-31T07:01:41.568Z,2.10
2017-07-31T07:04:10.884Z,2.20
2017-07-31T07:06:38.409Z,2.00
2017-07-31T07:09:06.882Z,2.40
2017-07-31T07:11:40.490Z,1.90
2017-07-31T07:14:07.999Z,1.70
2017-07-31T07:16:41.819Z,2.53
2017-07-31T07:19:09.659Z,2.40
2017-07-31T07:21:37.145Z,2.07
2017-07-31T07:24:04.646Z,1.77
2017-07-31T07:26:40.046Z,2.17
2017-07-31T07:29:10.917Z,2.13
2017-07-31T07:31:40.617Z,1.80
2017-07-31T07:34:11.233Z,1.97
2017-07-31T07:36:39.043Z,1.90
2017-07-31T07:39:06.549Z,1.80
2017-07-31T07:41:40.169Z,2.00
2017-07-31T07:44:07.655Z,2.17
2017-07-31T07:46:42.574Z,2.63
2017-07-31T07:49:20.719Z,2.90
2017-07-31T07:51:51.970Z,1.80
2017-07-31T07:54:19.467Z,2.30
2017-07-31T07:56:50.794Z,1.80
2017-07-31T07:59:21.427Z,2.57
2017-07-31T08:01:48.921Z,2.40
2017-07-31T08:04:22.358Z,2.20
2017-07-31T08:06:50.163Z,3.00
2017-07-31T08:09:20.946Z,2.80
2017-07-31T08:11:48.441Z,2.40
2017-07-31T08:14:15.963Z,2.30
2017-07-31T08:16:43.478Z,2.30
2017-07-31T08:19:21.126Z,3.00
2017-07-31T08:21:48.915Z,2.27
2017-07-31T08:24:16.417Z,2.23
2017-07-31T08:26:43.915Z,2.00
2017-07-31T08:29:11.782Z,2.60
2017-07-31T08:31:39.276Z,1.97
2017-07-31T08:34:12.682Z,2.10
2017-07-31T08:36:40.276Z,2.60
2017-07-31T08:39:07.774Z,2.70
2017-07-31T08:41:35.301Z,2.07
2017-07-31T08:44:10.797Z,2.30
2017-07-31T08:46:38.313Z,2.40
2017-07-31T08:49:05.830Z,1.90
2017-07-31T08:51:33.335Z,2.63
2017-07-31T08:54:00.833Z,2.13
2017-07-31T08:56:31.796Z,2.20
2017-07-31T08:59:00.295Z,1.70
2017-07-31T09:01:31.338Z,1.70
2017-07-31T09:03:58.835Z,2.23
2017-07-31T09:06:26.329Z,1.50
2017-07-31T09:09:00.513Z,2.20
2017-07-31T09:11:28.006Z,1.90
2017-07-31T09:14:01.879Z,2.10
2017-07-31T09:16:29.427Z,1.70
2017-07-31T09:18:57.259Z,1.90
2017-07-31T09:21:24.743Z,1.83
2017-07-31T09:24:00.478Z,3.23
2017-07-31T09:26:27.970Z,1.80
2017-07-31T09:29:01.903Z,2.00
2017-07-31T09:31:29.416Z,3.03
2017-07-31T09:33:56.934Z,2.33
2017-07-31T09:36:24.452Z,1.97
2017-07-31T09:39:00.299Z,1.63
2017-07-31T09:41:31.135Z,1.73
2017-07-31T09:44:01.812Z,2.00
2017-07-31T09:46:30.429Z,1.60
2017-07-31T09:49:01.138Z,2.43
2017-07-31T09:51:28.651Z,1.90
2017-07-31T09:53:56.162Z,1.80
2017-07-31T09:56:24.426Z,1.77
2017-07-31T09:59:00.239Z,1.60
2017-07-31T10:01:27.734Z,1.97
2017-07-31T10:03:55.493Z,1.90
2017-07-31T10:06:30.195Z,1.70
2017-07-31T10:09:01.318Z,1.07
2017-07-31T10:11:30.618Z,1.87
2017-07-31T10:14:01.450Z,1.60
2017-07-31T10:16:28.988Z,1.50
2017-07-31T10:19:02.405Z,1.50
2017-07-31T10:21:29.903Z,1.43
2017-07-31T10:24:00.743Z,1.70
2017-07-31T10:26:31.313Z,2.10
2017-07-31T10:28:58.815Z,1.77
2017-07-31T10:31:32.096Z,1.83
2017-07-31T10:33:59.600Z,1.90
2017-07-31T10:36:30.892Z,1.20
2017-07-31T10:38:58.402Z,1.60
2017-07-31T10:41:25.899Z,1.73
2017-07-31T10:43:53.414Z,1.47
2017-07-31T10:46:20.944Z,1.93
2017-07-31T10:48:48.460Z,2.40
2017-07-31T10:51:16.720Z,1.93
2017-07-31T10:53:44.519Z,1.53
2017-07-31T10:56:12.025Z,1.40
2017-07-31T10:58:39.541Z,1.77
2017-07-31T11:01:07.043Z,2.33
2017-07-31T11:03:40.196Z,2.00
2017-07-31T11:06:11.014Z,2.30
2017-07-31T11:08:41.584Z,1.53
2017-07-31T11:11:09.323Z,1.90
2017-07-31T11:13:36.814Z,1.60
2017-07-31T11:16:04.315Z,1.40
2017-07-31T11:18:32.599Z,1.50
2017-07-31T11:21:00.103Z,2.13
2017-07-31T11:23:27.621Z,2.00
2017-07-31T11:26:00.884Z,1.60
2017-07-31T11:28:32.185Z,2.13
2017-07-31T11:30:59.684Z,1.90
2017-07-31T11:33:27.184Z,2.10
2017-07-31T11:35:54.699Z,1.63
2017-07-31T11:38:22.183Z,2.20
2017-07-31T11:41:00.548Z,1.80
2017-07-31T11:43:31.384Z,1.70
2017-07-31T11:45:59.179Z,1.60
2017-07-31T11:48:26.714Z,1.87
2017-07-31T11:51:00.234Z,2.47
2017-07-31T11:53:27.715Z,1.47
2017-07-31T11:55:55.225Z,1.83
2017-07-31T11:58:30.723Z,2.00
2017-07-31T12:00:58.259Z,1.67
2017-07-31T12:03:32.047Z,1.90
2017-07-31T12:06:00.862Z,2.07
2017-07-31T12:08:31.753Z,1.50
2017-07-31T12:11:00.851Z,2.07
2017-07-31T12:13:32.000Z,1.97
2017-07-31T12:15:59.504Z,1.77
2017-07-31T12:18:30.835Z,1.77
2017-07-31T12:20:58.350Z,1.97
2017-07-31T12:23:31.732Z,2.10
2017-07-31T12:26:00.601Z,2.37
2017-07-31T12:28:28.876Z,1.40
2017-07-31T12:30:56.643Z,2.37
2017-07-31T12:33:24.915Z,1.83
2017-07-31T12:36:00.886Z,1.73
2017-07-31T12:38:28.399Z,2.27
2017-07-31T12:41:02.290Z,2.03
2017-07-31T12:43:29.796Z,1.70
2017-07-31T12:46:00.423Z,2.00
2017-07-31T12:48:32.070Z,1.37
2017-07-31T12:50:59.561Z,1.73
2017-07-31T12:53:27.058Z,2.20
2017-07-31T12:55:54.553Z,2.10
2017-07-31T12:58:30.607Z,1.73
2017-07-31T13:01:01.104Z,1.83
2017-07-31T13:03:28.597Z,1.70
2017-07-31T13:05:56.216Z,1.10
2017-07-31T13:08:23.713Z,1.60
2017-07-31T13:11:01.608Z,2.13
2017-07-31T13:13:30.409Z,2.00
2017-07-31T13:15:58.217Z,1.50
2017-07-31T13:18:25.744Z,2.10
2017-07-31T13:20:53.227Z,2.20
2017-07-31T13:23:20.768Z,1.67
2017-07-31T13:25:48.276Z,1.50
2017-07-31T13:28:22.029Z,1.97
2017-07-31T13:30:50.840Z,2.20
2017-07-31T13:33:18.710Z,1.80
2017-07-31T13:35:46.190Z,2.00
2017-07-31T13:38:20.681Z,1.50
2017-07-31T13:40:48.176Z,1.90
2017-07-31T13:43:15.674Z,1.93
2017-07-31T13:45:43.183Z,2.03
2017-07-31T13:48:10.667Z,1.50
2017-07-31T13:50:41.954Z,1.80
2017-07-31T13:53:09.477Z,2.20
2017-07-31T13:55:43.073Z,2.17
2017-07-31T13:58:20.382Z,1.90
2017-07-31T14:00:51.655Z,2.53
2017-07-31T14:03:20.886Z,1.63
2017-07-31T14:05:48.392Z,1.87
2017-07-31T14:08:16.681Z,1.23
2017-07-31T14:10:50.531Z,1.90
2017-07-31T14:13:21.077Z,1.97
2017-07-31T14:15:51.895Z,2.90
2017-07-31T14:18:20.878Z,2.87
2017-07-31T14:20:52.120Z,3.00
2017-07-31T14:23:21.011Z,1.80
2017-07-31T14:25:48.518Z,1.90
2017-07-31T14:28:16.022Z,2.37
2017-07-31T14:30:50.259Z,2.00
2017-07-31T14:33:17.758Z,1.63
2017-07-31T14:35:45.546Z,2.03
2017-07-31T14:38:13.827Z,1.60
2017-07-31T14:40:51.774Z,2.43
2017-07-31T14:43:19.268Z,2.27
2017-07-31T14:45:47.884Z,2.10
2017-07-31T14:48:21.336Z,2.30
2017-07-31T14:50:50.474Z,2.50
2017-07-31T14:53:21.667Z,3.13
2017-07-31T14:55:49.183Z,2.73
2017-07-31T14:58:22.663Z,1.97
2017-07-31T15:00:50.168Z,2.20
2017-07-31T15:03:21.136Z,2.67
2017-07-31T15:05:48.643Z,2.50
2017-07-31T15:08:22.378Z,2.60
2017-07-31T15:10:49.979Z,1.80
2017-07-31T15:13:18.248Z,2.20
2017-07-31T15:15:46.531Z,2.30
2017-07-31T15:18:20.641Z,3.10
2017-07-31T15:20:48.437Z,2.73
2017-07-31T15:23:15.965Z,2.17
2017-07-31T15:25:43.457Z,2.40
2017-07-31T15:28:10.964Z,2.30
2017-07-31T15:30:40.211Z,1.50
2017-07-31T15:33:07.720Z,2.77
2017-07-31T15:35:35.222Z,2.10
2017-07-31T15:38:11.072Z,2.20
2017-07-31T15:40:38.571Z,2.20
2017-07-31T15:43:06.080Z,2.10
2017-07-31T15:45:40.572Z,2.80
2017-07-31T15:48:08.066Z,1.93
2017-07-31T15:50:35.559Z,2.60
2017-07-31T15:53:03.063Z,2.03
2017-07-31T15:55:41.354Z,2.60
2017-07-31T15:58:08.855Z,2.50
2017-07-31T16:00:36.343Z,2.60
2017-07-31T16:03:04.112Z,2.67
2017-07-31T16:05:41.341Z,2.10
2017-07-31T16:08:11.413Z,3.10
2017-07-31T16:10:40.656Z,2.47
2017-07-31T16:13:08.165Z,2.90
2017-07-31T16:15:41.430Z,1.90
2017-07-31T16:18:08.939Z,3.10
2017-07-31T16:20:36.438Z,2.53
2017-07-31T16:23:11.308Z,2.57
2017-07-31T16:25:39.095Z,2.03
2017-07-31T16:28:06.601Z,2.50
2017-07-31T16:30:34.108Z,3.03
2017-07-31T16:33:11.923Z,3.03
2017-07-31T16:35:39.408Z,2.60
2017-07-31T16:38:23.256Z,2.50
2017-07-31T16:41:00.380Z,2.70
2017-07-31T16:43:40.031Z,2.97
2017-07-31T16:46:22.729Z,3.40
2017-07-31T16:49:02.719Z,2.73
2017-07-31T16:51:30.214Z,2.30
2017-07-31T16:54:00.627Z,2.43
2017-07-31T16:56:28.905Z,2.60
2017-07-31T16:58:56.392Z,2.80
2017-07-31T17:01:24.269Z,3.10
2017-07-31T17:04:00.019Z,2.27
2017-07-31T17:06:31.197Z,2.23
2017-07-31T17:08:58.683Z,2.30
2017-07-31T17:11:26.176Z,2.93
2017-07-31T17:13:53.675Z,2.57
2017-07-31T17:16:31.075Z,2.47
2017-07-31T17:19:01.925Z,2.60
2017-07-31T17:21:30.187Z,2.20
2017-07-31T17:23:57.687Z,1.97
2017-07-31T17:26:25.533Z,2.30
2017-07-31T17:28:53.039Z,2.80
2017-07-31T17:31:20.540Z,1.93
2017-07-31T17:33:51.900Z,2.37
2017-07-31T17:36:19.400Z,2.40
2017-07-31T17:38:52.844Z,2.70
2017-07-31T17:41:21.098Z,2.80
2017-07-31T17:43:52.374Z,2.50
2017-07-31T17:46:20.589Z,2.23
2017-07-31T17:48:48.080Z,2.60
2017-07-31T17:51:15.858Z,2.73
2017-07-31T17:53:50.208Z,2.30
2017-07-31T17:56:18.068Z,3.03
2017-07-31T17:58:45.561Z,2.63
2017-07-31T18:01:13.064Z,2.57
2017-07-31T18:03:50.525Z,2.50
2017-07-31T18:06:18.043Z,2.50
2017-07-31T18:08:45.888Z,4.10
2017-07-31T18:11:13.391Z,2.13
2017-07-31T18:13:40.870Z,2.53
2017-07-31T18:16:08.681Z,3.13
2017-07-31T18:18:36.187Z,2.20
2017-07-31T18:21:03.686Z,2.80
2017-07-31T18:23:31.203Z,2.83
2017-07-31T18:26:00.576Z,2.00
2017-07-31T18:28:28.326Z,2.73
2017-07-31T18:31:02.426Z,2.43
2017-07-31T18:33:30.298Z,3.23
2017-07-31T18:35:57.788Z,2.60
2017-07-31T18:38:31.448Z,2.47
2017-07-31T18:41:01.133Z,2.30
2017-07-31T18:43:28.641Z,2.43
2017-07-31T18:46:02.330Z,2.77
2017-07-31T18:48:29.837Z,2.50
2017-07-31T18:50:57.337Z,2.57
2017-07-31T18:53:32.292Z,2.83
2017-07-31T18:55:59.803Z,2.97
2017-07-31T18:58:27.308Z,3.17
2017-07-31T19:00:54.820Z,2.27
2017-07-31T19:03:30.590Z,3.40
2017-07-31T19:06:00.026Z,2.23
2017-07-31T19:08:31.117Z,2.53
2017-07-31T19:11:02.107Z,3.17
2017-07-31T19:13:30.216Z,4.00
2017-07-31T19:16:00.726Z,2.90
2017-07-31T19:18:28.240Z,3.10
2017-07-31T19:21:02.684Z,2.97
2017-07-31T19:23:30.554Z,3.00
2017-07-31T19:25:58.057Z,3.00
2017-07-31T19:28:25.569Z,3.10
2017-07-31T19:30:53.077Z,2.90
2017-07-31T19:33:30.725Z,3.50
2017-07-31T19:36:02.486Z,2.60
2017-07-31T19:38:31.186Z,2.90
2017-07-31T19:40:58.692Z,3.43
2017-07-31T19:43:26.185Z,2.90
2017-07-31T19:45:53.695Z,2.73
2017-07-31T19:48:31.502Z,2.77
2017-07-31T19:50:58.994Z,4.23
2017-07-31T19:53:26.470Z,3.10
2017-07-31T19:55:54.318Z,3.47
2017-07-31T19:58:21.821Z,3.37
2017-07-31T20:00:49.320Z,2.47
2017-07-31T20:03:17.104Z,3.77
2017-07-31T20:05:50.714Z,4.00
2017-07-31T20:08:18.495Z,2.97
2017-07-31T20:10:45.984Z,3.33
2017-07-31T20:13:20.761Z,3.73
2017-07-31T20:15:51.406Z,3.47
2017-07-31T20:18:18.892Z,2.90
2017-07-31T20:20:52.673Z,4.50
2017-07-31T20:23:20.167Z,3.03
2017-07-31T20:25:50.759Z,3.57
2017-07-31T20:28:18.604Z,3.13
2017-07-31T20:30:46.090Z,4.00
2017-07-31T20:33:13.592Z,3.17
2017-07-31T20:35:41.386Z,3.10
2017-07-31T20:38:10.754Z,2.90
2017-07-31T20:40:38.242Z,3.90
2017-07-31T20:43:12.841Z,3.70
2017-07-31T20:45:50.085Z,4.87
2017-07-31T20:48:17.859Z,3.20
2017-07-31T20:50:45.360Z,2.90
2017-07-31T20:53:21.000Z,3.40
2017-07-31T20:55:48.490Z,3.10
2017-07-31T20:58:15.993Z,3.20
2017-07-31T21:00:43.764Z,3.90
2017-07-31T21:03:11.276Z,4.00
2017-07-31T21:05:38.775Z,3.70
2017-07-31T21:08:12.058Z,4.23
2017-07-31T21:10:39.544Z,3.20
2017-07-31T21:13:07.303Z,3.60
2017-07-31T21:15:40.871Z,3.13
2017-07-31T21:18:08.646Z,3.90
2017-07-31T21:20:36.153Z,4.13
2017-07-31T21:23:10.795Z,4.10
2017-07-31T21:25:38.294Z,3.50
2017-07-31T21:28:11.835Z,4.27
2017-07-31T21:30:40.315Z,4.00
2017-07-31T21:33:07.802Z,4.00
2017-07-31T21:35:41.390Z,3.50
2017-07-31T21:38:10.180Z,3.67
2017-07-31T21:40:38.190Z,3.30
2017-07-31T21:43:05.669Z,2.90
2017-07-31T21:45:33.163Z,2.90
2017-07-31T21:48:11.315Z,3.73
2017-07-31T21:50:38.813Z,3.60
2017-07-31T21:53:07.419Z,4.30
2017-07-31T21:55:41.201Z,3.23
2017-07-31T21:58:09.013Z,3.63
2017-07-31T22:00:36.510Z,3.67
2017-07-31T22:03:10.432Z,3.47
2017-07-31T22:05:37.932Z,3.80
2017-07-31T22:08:11.610Z,4.13
2017-07-31T22:10:39.100Z,3.20
2017-07-31T22:13:12.782Z,3.40
2017-07-31T22:15:40.283Z,4.17
2017-07-31T22:18:13.840Z,3.50
2017-07-31T22:20:57.005Z,3.47
2017-07-31T22:23:24.844Z,3.73
2017-07-31T22:26:00.347Z,3.63
2017-07-31T22:28:31.418Z,3.47
2017-07-31T22:31:00.575Z,2.83
2017-07-31T22:33:28.073Z,4.07
2017-07-31T22:36:01.452Z,4.00
2017-07-31T22:38:30.258Z,4.23
2017-07-31T22:40:58.018Z,3.70
2017-07-31T22:43:25.520Z,3.83
2017-07-31T22:46:00.718Z,3.60
2017-07-31T22:48:28.989Z,3.83
2017-07-31T22:50:56.513Z,3.67
2017-07-31T22:53:24.027Z,4.27
2017-07-31T22:55:51.532Z,3.87
2017-07-31T22:58:19.343Z,4.90
2017-07-31T23:00:52.649Z,4.90
2017-07-31T23:03:20.806Z,4.07
2017-07-31T23:05:48.319Z,3.77
2017-07-31T23:08:22.472Z,4.43
2017-07-31T23:10:50.759Z,3.40
2017-07-31T23:13:19.020Z,2.93
2017-07-31T23:15:47.296Z,3.13
2017-07-31T23:18:15.574Z,4.57
2017-07-31T23:20:44.182Z,3.87
2017-07-31T23:23:21.625Z,5.63
2017-07-31T23:25:49.418Z,4.67
2017-07-31T23:28:17.711Z,3.80
2017-07-31T23:30:51.538Z,2.73
2017-07-31T23:33:22.000Z,3.07
2017-07-31T23:35:49.491Z,3.77
2017-07-31T23:38:21.336Z,3.60
2017-07-31T23:40:51.788Z,2.97
2017-07-31T23:43:20.284Z,2.93
2017-07-31T23:45:50.915Z,3.40
2017-07-31T23:48:21.943Z,4.40
2017-07-31T23:50:51.026Z,2.80
2017-07-31T23:53:20.522Z,3.80
2017-07-31T23:55:51.146Z,3.20
2017-07-31T23:58:18.635Z,3.30
